sensor_id;sensor_type;location;lat;lon;timestamp;pressure;altitude;pressure_sealevel;temperature;humidity
31595;BME280;18200;48.726;8.892;2023-04-29T00:01:45;96450.53;;;25.82;36.93
31595;BME280;18200;48.726;8.892;2023-04-29T00:05:45;96461.44;;;25.50;37.64
31595;BME280;18200;48.726;8.892;2023-04-29T00:09:48;96448.94;;;25.49;37.99
31595;BME280;18200;48.726;8.892;2023-04-29T00:13:49;96451.94;;;25.69;36.80
31595;BME280;18200;48.726;8.892;2023-04-29T00:17:49;96448.25;;;25.81;37.41
31595;BME280;18200;48.726;8.892;2023-04-29T00:21:49;96453.66;;;25.57;36.33
31595;BME280;18200;48.726;8.892;2023-04-29T00:25:51;96446.00;;;25.61;37.08
31595;BME280;18200;48.726;8.892;2023-04-29T00:29:52;96450.88;;;25.66;37.16
31595;BME280;18200;48.726;8.892;2023-04-29T00:33:53;96446.91;;;25.22;36.82
31595;BME280;18200;48.726;8.892;2023-04-29T00:37:53;96451.66;;;25.21;37.78
31595;BME280;18200;48.726;8.892;2023-04-29T00:41:54;96458.09;;;25.55;37.54
31595;BME280;18200;48.726;8.892;2023-04-29T00:45:54;96457.63;;;25.47;36.52
31595;BME280;18200;48.726;8.892;2023-04-29T00:49:55;96457.91;;;25.76;36.92
31595;BME280;18200;48.726;8.892;2023-04-29T00:53:55;96457.31;;;25.54;36.62
31595;BME280;18200;48.726;8.892;2023-04-29T00:57:56;96463.88;;;25.11;36.90
31595;BME280;18200;48.726;8.892;2023-04-29T01:01:59;96450.56;;;25.37;37.16
31595;BME280;18200;48.726;8.892;2023-04-29T01:06:26;96458.81;;;24.83;38.49
31595;BME280;18200;48.726;8.892;2023-04-29T01:10:37;96455.50;;;25.42;37.32
31595;BME280;18200;48.726;8.892;2023-04-29T01:14:42;96463.38;;;24.86;37.97
31595;BME280;18200;48.726;8.892;2023-04-29T01:19:25;96461.91;;;25.21;36.95
31595;BME280;18200;48.726;8.892;2023-04-29T01:23:27;96462.03;;;24.99;38.16
31595;BME280;18200;48.726;8.892;2023-04-29T01:27:32;96453.50;;;25.24;37.25
31595;BME280;18200;48.726;8.892;2023-04-29T01:31:50;96445.25;;;25.24;36.91
31595;BME280;18200;48.726;8.892;2023-04-29T01:36:18;96454.09;;;25.19;36.70
31595;BME280;18200;48.726;8.892;2023-04-29T01:40:25;96452.91;;;24.53;37.82
31595;BME280;18200;48.726;8.892;2023-04-29T01:44:43;96454.53;;;24.91;37.86
31595;BME280;18200;48.726;8.892;2023-04-29T01:48:46;96460.03;;;24.91;36.89
31595;BME280;18200;48.726;8.892;2023-04-29T01:52:47;96447.13;;;24.60;37.68
31595;BME280;18200;48.726;8.892;2023-04-29T01:56:48;96449.66;;;24.37;37.27
31595;BME280;18200;48.726;8.892;2023-04-29T02:01:22;96450.03;;;24.57;37.32
31595;BME280;18200;48.726;8.892;2023-04-29T02:05:22;96449.97;;;24.39;37.68
31595;BME280;18200;48.726;8.892;2023-04-29T02:09:29;96446.16;;;24.85;37.59
31595;BME280;18200;48.726;8.892;2023-04-29T02:13:37;96456.88;;;24.52;37.64
31595;BME280;18200;48.726;8.892;2023-04-29T02:17:38;96458.94;;;24.79;36.97
31595;BME280;18200;48.726;8.892;2023-04-29T02:21:38;96462.78;;;24.02;38.37
31595;BME280;18200;48.726;8.892;2023-04-29T02:25:39;96462.50;;;24.09;37.99
31595;BME280;18200;48.726;8.892;2023-04-29T02:29:40;96454.78;;;24.65;37.55
31595;BME280;18200;48.726;8.892;2023-04-29T02:33:40;96463.69;;;24.39;37.77
31595;BME280;18200;48.726;8.892;2023-04-29T02:37:43;96454.88;;;24.04;37.94
31595;BME280;18200;48.726;8.892;2023-04-29T02:41:44;96461.44;;;24.07;38.15
31595;BME280;18200;48.726;8.892;2023-04-29T02:45:45;96465.72;;;23.86;37.72
31595;BME280;18200;48.726;8.892;2023-04-29T02:49:45;96461.00;;;23.86;38.36
31595;BME280;18200;48.726;8.892;2023-04-29T02:53:46;96466.00;;;23.36;37.90
31595;BME280;18200;48.726;8.892;2023-04-29T02:57:46;96455.19;;;23.20;39.48
31595;BME280;18200;48.726;8.892;2023-04-29T03:01:46;96463.03;;;23.95;38.22
31595;BME280;18200;48.726;8.892;2023-04-29T03:05:47;96456.41;;;23.83;38.14
31595;BME280;18200;48.726;8.892;2023-04-29T03:09:48;96460.75;;;23.29;38.12
31595;BME280;18200;48.726;8.892;2023-04-29T03:13:49;96457.03;;;23.23;38.67
31595;BME280;18200;48.726;8.892;2023-04-29T03:17:50;96463.69;;;23.77;38.35
31595;BME280;18200;48.726;8.892;2023-04-29T03:21:51;96457.94;;;23.20;39.14
31595;BME280;18200;48.726;8.892;2023-04-29T03:25:51;96461.28;;;23.58;38.30
31595;BME280;18200;48.726;8.892;2023-04-29T03:29:52;96459.47;;;23.64;37.93
31595;BME280;18200;48.726;8.892;2023-04-29T03:33:52;96448.09;;;23.44;38.83
31595;BME280;18200;48.726;8.892;2023-04-29T03:37:54;96444.97;;;23.54;38.21
31595;BME280;18200;48.726;8.892;2023-04-29T03:41:58;96448.22;;;23.28;38.41
31595;BME280;18200;48.726;8.892;2023-04-29T03:45:59;96433.06;;;23.79;38.56
31595;BME280;18200;48.726;8.892;2023-04-29T03:49:59;96425.44;;;24.53;38.97
31595;BME280;18200;48.726;8.892;2023-04-29T03:54:00;96426.06;;;24.48;39.64
31595;BME280;18200;48.726;8.892;2023-04-29T03:58:02;96434.56;;;24.41;38.44
31595;BME280;18200;48.726;8.892;2023-04-29T04:02:02;96436.38;;;24.35;39.27
31595;BME280;18200;48.726;8.892;2023-04-29T04:06:03;96446.66;;;24.04;38.61
31595;BME280;18200;48.726;8.892;2023-04-29T04:10:04;96444.59;;;24.26;38.40
31595;BME280;18200;48.726;8.892;2023-04-29T04:14:05;96451.84;;;24.11;38.19
31595;BME280;18200;48.726;8.892;2023-04-29T04:18:05;96459.13;;;23.53;38.15
31595;BME280;18200;48.726;8.892;2023-04-29T04:22:06;96470.63;;;23.26;37.07
31595;BME280;18200;48.726;8.892;2023-04-29T04:26:09;96475.69;;;22.81;37.81
31595;BME280;18200;48.726;8.892;2023-04-29T04:30:31;96471.88;;;22.40;38.54
31595;BME280;18200;48.726;8.892;2023-04-29T04:34:31;96480.47;;;23.02;38.12
31595;BME280;18200;48.726;8.892;2023-04-29T04:38:34;96485.75;;;22.96;37.95
31595;BME280;18200;48.726;8.892;2023-04-29T04:42:39;96495.19;;;22.95;38.18
31595;BME280;18200;48.726;8.892;2023-04-29T04:46:41;96497.34;;;23.00;37.94
31595;BME280;18200;48.726;8.892;2023-04-29T04:50:48;96498.97;;;23.10;38.36
31595;BME280;18200;48.726;8.892;2023-04-29T04:54:49;96501.41;;;23.30;38.13
31595;BME280;18200;48.726;8.892;2023-04-29T04:58:55;96512.56;;;23.48;37.32
31595;BME280;18200;48.726;8.892;2023-04-29T05:02:55;96507.09;;;23.48;36.92
31595;BME280;18200;48.726;8.892;2023-04-29T05:06:56;96526.13;;;23.17;37.04
31595;BME280;18200;48.726;8.892;2023-04-29T05:10:59;96532.09;;;23.03;37.85
31595;BME280;18200;48.726;8.892;2023-04-29T05:15:01;96531.28;;;23.15;37.70
31595;BME280;18200;48.726;8.892;2023-04-29T05:19:02;96535.97;;;23.28;37.77
31595;BME280;18200;48.726;8.892;2023-04-29T05:23:06;96532.47;;;23.61;37.69
31595;BME280;18200;48.726;8.892;2023-04-29T05:27:12;96534.66;;;23.20;37.73
31595;BME280;18200;48.726;8.892;2023-04-29T05:31:12;96534.69;;;23.54;37.46
31595;BME280;18200;48.726;8.892;2023-04-29T05:35:14;96545.63;;;23.20;37.92
31595;BME280;18200;48.726;8.892;2023-04-29T05:39:15;96548.03;;;23.86;38.44
31595;BME280;18200;48.726;8.892;2023-04-29T05:43:17;96557.84;;;23.53;39.04
31595;BME280;18200;48.726;8.892;2023-04-29T05:47:17;96557.69;;;24.43;38.11
31595;BME280;18200;48.726;8.892;2023-04-29T05:51:18;96563.19;;;24.74;39.05
31595;BME280;18200;48.726;8.892;2023-04-29T05:55:18;96569.94;;;24.82;37.58
31595;BME280;18200;48.726;8.892;2023-04-29T05:59:20;96579.38;;;23.42;41.90
31595;BME280;18200;48.726;8.892;2023-04-29T06:03:25;96585.72;;;24.07;40.56
31595;BME280;18200;48.726;8.892;2023-04-29T06:07:49;96589.41;;;23.70;41.26
31595;BME280;18200;48.726;8.892;2023-04-29T06:12:17;96607.38;;;24.05;40.39
31595;BME280;18200;48.726;8.892;2023-04-29T06:16:19;96603.53;;;25.25;38.78
31595;BME280;18200;48.726;8.892;2023-04-29T06:20:20;96610.44;;;24.59;39.50
31595;BME280;18200;48.726;8.892;2023-04-29T06:24:20;96615.78;;;24.11;40.07
31595;BME280;18200;48.726;8.892;2023-04-29T06:28:21;96627.34;;;24.80;38.15
31595;BME280;18200;48.726;8.892;2023-04-29T06:32:21;96641.66;;;24.22;38.91
31595;BME280;18200;48.726;8.892;2023-04-29T06:36:21;96643.53;;;23.91;39.44
31595;BME280;18200;48.726;8.892;2023-04-29T06:40:36;96640.75;;;24.25;38.77
31595;BME280;18200;48.726;8.892;2023-04-29T06:44:55;96644.66;;;24.89;37.59
31595;BME280;18200;48.726;8.892;2023-04-29T06:49:22;96648.41;;;24.30;38.50
31595;BME280;18200;48.726;8.892;2023-04-29T06:53:23;96660.00;;;24.78;37.36
31595;BME280;18200;48.726;8.892;2023-04-29T06:57:23;96660.41;;;24.45;38.29
31595;BME280;18200;48.726;8.892;2023-04-29T07:01:24;96665.94;;;25.07;37.20
31595;BME280;18200;48.726;8.892;2023-04-29T07:05:24;96660.09;;;23.87;39.70
31595;BME280;18200;48.726;8.892;2023-04-29T07:09:25;96662.53;;;24.94;38.23
31595;BME280;18200;48.726;8.892;2023-04-29T07:13:26;96663.59;;;24.65;38.33
31595;BME280;18200;48.726;8.892;2023-04-29T07:17:28;96669.66;;;25.13;37.25
31595;BME280;18200;48.726;8.892;2023-04-29T07:21:29;96667.19;;;25.55;36.83
31595;BME280;18200;48.726;8.892;2023-04-29T07:25:30;96680.66;;;25.22;37.21
31595;BME280;18200;48.726;8.892;2023-04-29T07:29:32;96679.03;;;26.37;35.64
31595;BME280;18200;48.726;8.892;2023-04-29T07:33:33;96673.03;;;26.65;35.17
31595;BME280;18200;48.726;8.892;2023-04-29T07:37:34;96687.78;;;26.08;35.57
31595;BME280;18200;48.726;8.892;2023-04-29T07:41:34;96679.63;;;26.59;34.89
31595;BME280;18200;48.726;8.892;2023-04-29T07:45:34;96683.34;;;26.10;35.87
31595;BME280;18200;48.726;8.892;2023-04-29T07:49:35;96684.19;;;26.71;34.90
31595;BME280;18200;48.726;8.892;2023-04-29T07:53:35;96684.78;;;26.84;34.07
31595;BME280;18200;48.726;8.892;2023-04-29T07:57:36;96691.59;;;26.10;35.01
31595;BME280;18200;48.726;8.892;2023-04-29T08:01:36;96697.97;;;25.80;36.25
31595;BME280;18200;48.726;8.892;2023-04-29T08:05:37;96690.78;;;25.74;36.52
31595;BME280;18200;48.726;8.892;2023-04-29T08:09:38;96695.84;;;26.48;35.08
31595;BME280;18200;48.726;8.892;2023-04-29T08:13:39;96700.44;;;26.78;35.07
31595;BME280;18200;48.726;8.892;2023-04-29T08:17:39;96691.16;;;26.21;36.53
31595;BME280;18200;48.726;8.892;2023-04-29T08:21:40;96700.81;;;24.66;39.11
31595;BME280;18200;48.726;8.892;2023-04-29T08:25:42;96701.03;;;26.00;37.19
31595;BME280;18200;48.726;8.892;2023-04-29T08:29:43;96698.66;;;26.30;36.86
31595;BME280;18200;48.726;8.892;2023-04-29T08:33:43;96705.72;;;25.24;37.64
31595;BME280;18200;48.726;8.892;2023-04-29T08:37:43;96703.84;;;25.12;37.89
31595;BME280;18200;48.726;8.892;2023-04-29T08:41:44;96700.22;;;25.73;37.74
31595;BME280;18200;48.726;8.892;2023-04-29T08:45:48;96710.56;;;24.80;38.71
31595;BME280;18200;48.726;8.892;2023-04-29T08:49:49;96713.56;;;25.83;37.36
31595;BME280;18200;48.726;8.892;2023-04-29T08:53:49;96710.94;;;24.91;38.83
31595;BME280;18200;48.726;8.892;2023-04-29T08:57:52;96706.91;;;26.11;37.16
31595;BME280;18200;48.726;8.892;2023-04-29T09:01:54;96713.47;;;24.77;39.71
31595;BME280;18200;48.726;8.892;2023-04-29T09:05:59;96711.97;;;23.60;41.39
31595;BME280;18200;48.726;8.892;2023-04-29T09:10:00;96720.13;;;25.37;38.24
31595;BME280;18200;48.726;8.892;2023-04-29T09:14:01;96715.09;;;24.52;39.59
31595;BME280;18200;48.726;8.892;2023-04-29T09:18:03;96722.66;;;24.83;38.86
31595;BME280;18200;48.726;8.892;2023-04-29T09:22:04;96710.53;;;26.63;37.00
31595;BME280;18200;48.726;8.892;2023-04-29T09:26:07;96723.09;;;26.64;36.32
31595;BME280;18200;48.726;8.892;2023-04-29T09:30:07;96721.69;;;25.38;38.18
31595;BME280;18200;48.726;8.892;2023-04-29T09:34:08;96716.38;;;24.60;40.05
31595;BME280;18200;48.726;8.892;2023-04-29T09:38:15;96726.59;;;24.82;40.20
31595;BME280;18200;48.726;8.892;2023-04-29T09:42:15;96724.41;;;25.78;38.43
31595;BME280;18200;48.726;8.892;2023-04-29T09:46:16;96728.88;;;25.84;36.73
31595;BME280;18200;48.726;8.892;2023-04-29T09:50:16;96723.56;;;26.26;34.83
31595;BME280;18200;48.726;8.892;2023-04-29T09:54:23;96722.91;;;28.02;32.90
31595;BME280;18200;48.726;8.892;2023-04-29T09:58:32;96725.22;;;25.96;36.11
31595;BME280;18200;48.726;8.892;2023-04-29T10:02:46;96724.66;;;26.10;34.10
31595;BME280;18200;48.726;8.892;2023-04-29T10:06:49;96732.16;;;27.24;32.89
31595;BME280;18200;48.726;8.892;2023-04-29T10:10:50;96735.78;;;25.49;34.69
31595;BME280;18200;48.726;8.892;2023-04-29T10:19:18;96726.25;;;27.08;32.99
31595;BME280;18200;48.726;8.892;2023-04-29T10:23:23;96735.09;;;25.67;32.99
31595;BME280;18200;48.726;8.892;2023-04-29T10:27:25;96737.41;;;25.68;32.77
31595;BME280;18200;48.726;8.892;2023-04-29T10:31:28;96714.72;;;25.46;33.07
31595;BME280;18200;48.726;8.892;2023-04-29T10:35:31;96726.47;;;26.04;32.78
31595;BME280;18200;48.726;8.892;2023-04-29T10:39:41;96716.63;;;27.68;32.08
31595;BME280;18200;48.726;8.892;2023-04-29T10:43:43;96719.63;;;25.60;34.40
31595;BME280;18200;48.726;8.892;2023-04-29T10:52:05;96728.00;;;24.86;36.01
31595;BME280;18200;48.726;8.892;2023-04-29T10:56:09;96737.41;;;25.68;34.46
31595;BME280;18200;48.726;8.892;2023-04-29T11:00:25;96728.81;;;25.66;34.09
31595;BME280;18200;48.726;8.892;2023-04-29T11:04:25;96731.38;;;25.43;34.07
31595;BME280;18200;48.726;8.892;2023-04-29T11:08:26;96723.53;;;25.99;34.02
31595;BME280;18200;48.726;8.892;2023-04-29T11:12:27;96738.03;;;25.11;34.15
31595;BME280;18200;48.726;8.892;2023-04-29T11:16:27;96720.66;;;26.48;32.62
31595;BME280;18200;48.726;8.892;2023-04-29T11:20:28;96714.09;;;27.23;31.51
31595;BME280;18200;48.726;8.892;2023-04-29T11:24:28;96715.38;;;27.46;31.21
31595;BME280;18200;48.726;8.892;2023-04-29T11:28:30;96704.59;;;27.57;31.44
31595;BME280;18200;48.726;8.892;2023-04-29T11:32:32;96713.19;;;28.30;29.79
31595;BME280;18200;48.726;8.892;2023-04-29T11:36:33;96711.81;;;26.17;31.66
31595;BME280;18200;48.726;8.892;2023-04-29T11:40:34;96715.19;;;27.17;30.97
31595;BME280;18200;48.726;8.892;2023-04-29T11:44:35;96708.06;;;28.37;28.40
31595;BME280;18200;48.726;8.892;2023-04-29T11:48:36;96711.97;;;27.09;30.13
31595;BME280;18200;48.726;8.892;2023-04-29T11:52:38;96720.75;;;25.32;31.03
31595;BME280;18200;48.726;8.892;2023-04-29T11:56:40;96717.72;;;27.95;27.95
31595;BME280;18200;48.726;8.892;2023-04-29T12:00:40;96714.91;;;27.80;28.77
31595;BME280;18200;48.726;8.892;2023-04-29T12:04:45;96724.00;;;26.88;30.70
31595;BME280;18200;48.726;8.892;2023-04-29T12:08:46;96717.38;;;27.45;28.54
31595;BME280;18200;48.726;8.892;2023-04-29T12:12:47;96729.75;;;25.81;29.38
31595;BME280;18200;48.726;8.892;2023-04-29T12:16:47;96728.94;;;27.67;28.36
31595;BME280;18200;48.726;8.892;2023-04-29T12:20:49;96726.91;;;28.01;27.65
31595;BME280;18200;48.726;8.892;2023-04-29T12:24:55;96718.72;;;28.68;30.92
31595;BME280;18200;48.726;8.892;2023-04-29T12:28:57;96731.53;;;26.33;35.28
31595;BME280;18200;48.726;8.892;2023-04-29T12:32:58;96730.75;;;26.33;35.62
31595;BME280;18200;48.726;8.892;2023-04-29T12:36:59;96739.66;;;26.28;35.57
31595;BME280;18200;48.726;8.892;2023-04-29T12:41:00;96747.31;;;26.14;35.64
31595;BME280;18200;48.726;8.892;2023-04-29T12:45:01;96738.59;;;24.97;37.29
31595;BME280;18200;48.726;8.892;2023-04-29T12:49:02;96751.47;;;25.00;37.95
31595;BME280;18200;48.726;8.892;2023-04-29T12:53:04;96751.59;;;26.25;35.92
31595;BME280;18200;48.726;8.892;2023-04-29T12:57:05;96740.50;;;25.88;35.33
31595;BME280;18200;48.726;8.892;2023-04-29T13:01:06;96741.72;;;25.96;35.62
31595;BME280;18200;48.726;8.892;2023-04-29T13:05:06;96743.63;;;26.81;34.80
31595;BME280;18200;48.726;8.892;2023-04-29T13:09:07;96752.53;;;26.49;35.63
31595;BME280;18200;48.726;8.892;2023-04-29T13:13:11;96758.16;;;25.51;36.59
31595;BME280;18200;48.726;8.892;2023-04-29T13:17:11;96756.97;;;25.70;36.83
31595;BME280;18200;48.726;8.892;2023-04-29T13:21:11;96753.09;;;25.19;37.38
31595;BME280;18200;48.726;8.892;2023-04-29T13:25:12;96760.69;;;27.21;34.25
31595;BME280;18200;48.726;8.892;2023-04-29T13:29:14;96761.59;;;27.36;33.66
31595;BME280;18200;48.726;8.892;2023-04-29T13:33:14;96767.09;;;27.27;34.04
31595;BME280;18200;48.726;8.892;2023-04-29T13:37:14;96766.66;;;25.44;36.46
31595;BME280;18200;48.726;8.892;2023-04-29T13:41:16;96772.03;;;27.14;33.72
31595;BME280;18200;48.726;8.892;2023-04-29T13:45:16;96779.19;;;25.85;35.89
31595;BME280;18200;48.726;8.892;2023-04-29T13:49:16;96777.78;;;26.65;34.20
31595;BME280;18200;48.726;8.892;2023-04-29T13:53:17;96777.06;;;28.08;32.78
31595;BME280;18200;48.726;8.892;2023-04-29T13:57:17;96782.50;;;26.92;35.02
31595;BME280;18200;48.726;8.892;2023-04-29T14:01:18;96779.00;;;25.79;36.06
31595;BME280;18200;48.726;8.892;2023-04-29T14:05:18;96771.19;;;26.45;35.55
31595;BME280;18200;48.726;8.892;2023-04-29T14:09:19;96768.75;;;26.83;35.06
31595;BME280;18200;48.726;8.892;2023-04-29T14:13:20;96775.00;;;25.71;35.71
31595;BME280;18200;48.726;8.892;2023-04-29T14:17:21;96783.53;;;27.73;33.33
31595;BME280;18200;48.726;8.892;2023-04-29T14:21:21;96792.22;;;25.93;35.45
31595;BME280;18200;48.726;8.892;2023-04-29T14:25:21;96789.88;;;26.77;34.57
31595;BME280;18200;48.726;8.892;2023-04-29T14:29:22;96789.25;;;26.64;35.27
31595;BME280;18200;48.726;8.892;2023-04-29T14:33:22;96797.19;;;25.68;35.25
31595;BME280;18200;48.726;8.892;2023-04-29T14:37:23;96796.59;;;24.55;38.05
31595;BME280;18200;48.726;8.892;2023-04-29T14:41:23;96806.16;;;25.07;37.80
31595;BME280;18200;48.726;8.892;2023-04-29T14:45:24;96806.03;;;26.11;35.36
31595;BME280;18200;48.726;8.892;2023-04-29T14:49:24;96807.34;;;24.62;37.21
31595;BME280;18200;48.726;8.892;2023-04-29T14:53:25;96818.72;;;24.05;38.46
31595;BME280;18200;48.726;8.892;2023-04-29T14:57:25;96821.44;;;24.86;37.14
31595;BME280;18200;48.726;8.892;2023-04-29T15:01:26;96820.25;;;23.94;38.48
31595;BME280;18200;48.726;8.892;2023-04-29T15:05:26;96824.69;;;24.38;37.71
31595;BME280;18200;48.726;8.892;2023-04-29T15:09:27;96821.53;;;25.26;36.18
31595;BME280;18200;48.726;8.892;2023-04-29T15:13:27;96834.19;;;24.58;37.79
31595;BME280;18200;48.726;8.892;2023-04-29T15:17:28;96829.59;;;25.64;36.19
31595;BME280;18200;48.726;8.892;2023-04-29T15:21:29;96833.84;;;26.04;34.79
31595;BME280;18200;48.726;8.892;2023-04-29T15:25:29;96845.56;;;24.70;36.83
31595;BME280;18200;48.726;8.892;2023-04-29T15:29:30;96844.97;;;24.53;36.41
31595;BME280;18200;48.726;8.892;2023-04-29T15:33:33;96857.91;;;26.13;33.97
31595;BME280;18200;48.726;8.892;2023-04-29T15:37:34;96856.41;;;24.51;37.57
31595;BME280;18200;48.726;8.892;2023-04-29T15:41:34;96868.84;;;23.55;39.12
31595;BME280;18200;48.726;8.892;2023-04-29T15:45:35;96859.94;;;24.39;37.39
31595;BME280;18200;48.726;8.892;2023-04-29T15:49:35;96878.47;;;22.93;40.03
31595;BME280;18200;48.726;8.892;2023-04-29T15:53:36;96864.69;;;23.09;39.42
31595;BME280;18200;48.726;8.892;2023-04-29T15:57:36;96870.28;;;24.35;37.07
31595;BME280;18200;48.726;8.892;2023-04-29T16:01:41;96882.19;;;24.66;36.82
31595;BME280;18200;48.726;8.892;2023-04-29T16:05:41;96879.59;;;24.50;36.92
31595;BME280;18200;48.726;8.892;2023-04-29T16:09:42;96879.91;;;25.73;34.71
31595;BME280;18200;48.726;8.892;2023-04-29T16:13:42;96874.09;;;24.50;36.16
31595;BME280;18200;48.726;8.892;2023-04-29T16:17:42;96872.97;;;24.60;36.96
31595;BME280;18200;48.726;8.892;2023-04-29T16:21:43;96875.53;;;24.55;37.07
31595;BME280;18200;48.726;8.892;2023-04-29T16:25:46;96875.63;;;24.51;36.92
31595;BME280;18200;48.726;8.892;2023-04-29T16:29:46;96881.91;;;25.42;34.46
31595;BME280;18200;48.726;8.892;2023-04-29T16:33:46;96887.00;;;26.81;32.93
31595;BME280;18200;48.726;8.892;2023-04-29T16:37:47;96885.97;;;26.39;33.21
31595;BME280;18200;48.726;8.892;2023-04-29T16:41:47;96888.50;;;27.18;33.40
31595;BME280;18200;48.726;8.892;2023-04-29T16:45:48;96893.56;;;25.12;35.46
31595;BME280;18200;48.726;8.892;2023-04-29T16:49:49;96894.97;;;26.30;33.18
31595;BME280;18200;48.726;8.892;2023-04-29T16:53:50;96891.34;;;25.93;34.30
31595;BME280;18200;48.726;8.892;2023-04-29T16:57:51;96892.63;;;25.06;35.86
31595;BME280;18200;48.726;8.892;2023-04-29T17:01:53;96894.91;;;24.73;36.35
31595;BME280;18200;48.726;8.892;2023-04-29T17:05:53;96900.34;;;25.63;35.50
31595;BME280;18200;48.726;8.892;2023-04-29T17:09:53;96897.41;;;24.93;35.85
31595;BME280;18200;48.726;8.892;2023-04-29T17:13:54;96898.78;;;24.76;36.34
31595;BME280;18200;48.726;8.892;2023-04-29T17:17:54;96903.94;;;26.52;33.87
31595;BME280;18200;48.726;8.892;2023-04-29T17:21:54;96897.53;;;25.54;34.81
31595;BME280;18200;48.726;8.892;2023-04-29T17:25:56;96904.16;;;25.87;34.37
31595;BME280;18200;48.726;8.892;2023-04-29T17:29:56;96898.19;;;24.46;36.23
31595;BME280;18200;48.726;8.892;2023-04-29T17:33:56;96898.66;;;26.27;34.05
31595;BME280;18200;48.726;8.892;2023-04-29T17:38:04;96906.03;;;25.99;33.99
31595;BME280;18200;48.726;8.892;2023-04-29T17:42:04;96907.06;;;25.93;34.23
31595;BME280;18200;48.726;8.892;2023-04-29T17:46:06;96899.44;;;26.37;33.89
31595;BME280;18200;48.726;8.892;2023-04-29T17:50:07;96905.50;;;26.13;34.15
31595;BME280;18200;48.726;8.892;2023-04-29T17:54:07;96912.06;;;25.76;34.47
31595;BME280;18200;48.726;8.892;2023-04-29T17:58:08;96907.94;;;25.50;34.45
31595;BME280;18200;48.726;8.892;2023-04-29T18:02:08;96913.44;;;25.50;34.09
31595;BME280;18200;48.726;8.892;2023-04-29T18:06:08;96912.13;;;26.25;33.14
31595;BME280;18200;48.726;8.892;2023-04-29T18:10:09;96907.72;;;26.46;32.72
31595;BME280;18200;48.726;8.892;2023-04-29T18:14:10;96911.28;;;26.64;32.67
31595;BME280;18200;48.726;8.892;2023-04-29T18:18:10;96909.34;;;26.92;32.48
31595;BME280;18200;48.726;8.892;2023-04-29T18:22:11;96918.34;;;26.65;32.72
31595;BME280;18200;48.726;8.892;2023-04-29T18:26:11;96910.88;;;25.86;33.38
31595;BME280;18200;48.726;8.892;2023-04-29T18:30:11;96911.22;;;25.67;34.14
31595;BME280;18200;48.726;8.892;2023-04-29T18:34:12;96916.97;;;24.35;36.24
31595;BME280;18200;48.726;8.892;2023-04-29T18:38:12;96913.38;;;24.13;37.22
31595;BME280;18200;48.726;8.892;2023-04-29T18:42:16;96905.09;;;24.51;36.44
31595;BME280;18200;48.726;8.892;2023-04-29T18:46:16;96911.97;;;24.81;36.55
31595;BME280;18200;48.726;8.892;2023-04-29T18:50:16;96918.72;;;25.97;34.10
31595;BME280;18200;48.726;8.892;2023-04-29T18:54:17;96921.00;;;25.98;33.71
31595;BME280;18200;48.726;8.892;2023-04-29T18:58:18;96930.91;;;25.22;35.13
31595;BME280;18200;48.726;8.892;2023-04-29T19:02:18;96928.94;;;24.41;36.58
31595;BME280;18200;48.726;8.892;2023-04-29T19:06:19;96946.53;;;24.06;37.33
31595;BME280;18200;48.726;8.892;2023-04-29T19:10:19;96942.78;;;22.89;39.34
31595;BME280;18200;48.726;8.892;2023-04-29T19:14:20;96955.81;;;23.96;37.38
31595;BME280;18200;48.726;8.892;2023-04-29T19:18:20;96955.72;;;23.87;37.44
31595;BME280;18200;48.726;8.892;2023-04-29T19:22:22;96956.09;;;24.14;37.45
31595;BME280;18200;48.726;8.892;2023-04-29T19:26:22;96955.88;;;24.34;37.20
31595;BME280;18200;48.726;8.892;2023-04-29T19:30:23;96954.09;;;24.52;36.65
31595;BME280;18200;48.726;8.892;2023-04-29T19:34:23;96957.88;;;24.93;35.91
31595;BME280;18200;48.726;8.892;2023-04-29T19:38:24;96964.09;;;25.06;35.88
31595;BME280;18200;48.726;8.892;2023-04-29T19:42:24;96966.53;;;25.04;35.54
31595;BME280;18200;48.726;8.892;2023-04-29T19:46:26;96961.75;;;24.83;36.29
31595;BME280;18200;48.726;8.892;2023-04-29T19:50:29;96971.31;;;24.91;35.82
31595;BME280;18200;48.726;8.892;2023-04-29T19:54:30;96972.47;;;25.02;35.05
31595;BME280;18200;48.726;8.892;2023-04-29T19:58:31;96975.31;;;25.33;35.29
31595;BME280;18200;48.726;8.892;2023-04-29T20:02:32;96967.63;;;25.28;34.45
31595;BME280;18200;48.726;8.892;2023-04-29T20:06:32;96978.28;;;24.57;35.75
31595;BME280;18200;48.726;8.892;2023-04-29T20:10:34;96975.59;;;24.66;35.94
31595;BME280;18200;48.726;8.892;2023-04-29T20:14:34;96975.28;;;25.11;35.26
31595;BME280;18200;48.726;8.892;2023-04-29T20:18:35;96982.41;;;25.56;34.84
31595;BME280;18200;48.726;8.892;2023-04-29T20:22:36;96978.38;;;25.48;34.95
31595;BME280;18200;48.726;8.892;2023-04-29T20:26:37;96977.81;;;25.74;34.70
31595;BME280;18200;48.726;8.892;2023-04-29T20:30:37;96992.03;;;25.51;34.25
31595;BME280;18200;48.726;8.892;2023-04-29T20:34:38;96983.03;;;25.38;35.33
31595;BME280;18200;48.726;8.892;2023-04-29T20:38:38;96983.50;;;25.24;35.18
31595;BME280;18200;48.726;8.892;2023-04-29T20:42:39;96979.94;;;25.36;35.68
31595;BME280;18200;48.726;8.892;2023-04-29T20:46:39;96986.06;;;25.18;35.30
31595;BME280;18200;48.726;8.892;2023-04-29T20:50:40;96985.19;;;24.49;36.69
31595;BME280;18200;48.726;8.892;2023-04-29T20:54:40;96988.44;;;24.95;36.27
31595;BME280;18200;48.726;8.892;2023-04-29T20:58:41;96987.31;;;25.05;36.01
31595;BME280;18200;48.726;8.892;2023-04-29T21:02:41;96986.41;;;24.23;37.33
31595;BME280;18200;48.726;8.892;2023-04-29T21:06:41;96987.31;;;25.05;36.13
31595;BME280;18200;48.726;8.892;2023-04-29T21:10:42;96989.94;;;24.49;37.03
31595;BME280;18200;48.726;8.892;2023-04-29T21:14:42;96989.38;;;24.41;37.37
31595;BME280;18200;48.726;8.892;2023-04-29T21:18:43;96990.00;;;24.96;36.37
31595;BME280;18200;48.726;8.892;2023-04-29T21:22:44;96992.72;;;25.30;35.73
31595;BME280;18200;48.726;8.892;2023-04-29T21:26:44;96992.38;;;25.62;34.91
31595;BME280;18200;48.726;8.892;2023-04-29T21:30:45;96988.22;;;25.02;35.91